Flight Track Log - Related Links

Times and Time Zones

All times are in EDT time to prevent confusion due to time zone crossing. See the MSR663 flight status page for this flight to view local times or setup timezone preferences in your user account.

Time Position Orientation Groundspeed Altitude Reporting Facility
EDT Latitude Longitude Course Direction KTS MPH feet Rate Location/Type
Sat 05:49:00 PM 29.6602 31.8719 139° Southeast  Level Estimated
Sat 05:50:00 PM 29.5831 31.9492 139° Southeast  Level Estimated
Sat 05:51:00 PM 29.5059 32.0263 139° Southeast  Level Estimated
Sat 05:52:00 PM 29.4287 32.1034 139° Southeast  Level Estimated
Sat 05:53:00 PM 29.3515 32.1804 139° Southeast  Level Estimated
Sat 05:54:00 PM 29.2742 32.2572 139° Southeast  Level Estimated
Sat 05:55:00 PM 29.1969 32.3339 139° Southeast  Level Estimated
Sat 05:56:00 PM 29.1195 32.4105 139° Southeast  Level Estimated
Sat 05:57:00 PM 29.0421 32.4870 139° Southeast  Level Estimated
Sat 05:58:00 PM 28.9646 32.5634 139° Southeast  Level Estimated
Sat 05:59:00 PM 28.8871 32.6396 139° Southeast  Level Estimated
Sat 06:00:00 PM 28.8095 32.7158 139° Southeast  Level Estimated
Sat 06:01:00 PM 28.7319 32.7918 139° Southeast  Level Estimated
Sat 06:02:00 PM 28.6543 32.8677 139° Southeast  Level Estimated
Sat 06:03:00 PM 28.5766 32.9435 139° Southeast  Level Estimated
Sat 06:04:00 PM 28.4989 33.0192 139° Southeast  Level Estimated
Sat 06:05:00 PM 28.4211 33.0948 139° Southeast  Level Estimated
Sat 06:06:00 PM 28.3433 33.1702 140° Southeast  Level Estimated
Sat 06:07:00 PM 28.2655 33.2456 140° Southeast  Level Estimated
Sat 06:08:00 PM 28.1876 33.3209 140° Southeast  Level Estimated
Sat 06:09:00 PM 28.1097 33.3960 140° Southeast  Level Estimated
Sat 06:10:00 PM 28.0317 33.4710 140° Southeast  Level Estimated
Sat 06:11:00 PM 27.9537 33.5459 140° Southeast  Level Estimated
Sat 06:12:00 PM 27.8756 33.6208 140° Southeast  Level Estimated
Sat 06:13:00 PM 27.7976 33.6954 140° Southeast  Level Estimated
Sat 06:14:00 PM 27.7194 33.7701 140° Southeast  Level Estimated
Sat 06:15:00 PM 27.6413 33.8445 140° Southeast  Level Estimated
Sat 06:16:00 PM 27.5630 33.9189 140° Southeast  Level Estimated
Sat 06:17:00 PM 27.4848 33.9932 140° Southeast  Level Estimated
Sat 06:18:00 PM 27.4065 34.0674 140° Southeast  Level Estimated
Sat 06:19:00 PM 27.3282 34.1414 140° Southeast  Level Estimated
Sat 06:20:00 PM 27.2498 34.2154 140° Southeast  Level Estimated
Sat 06:21:00 PM 27.1714 34.2893 140° Southeast  Level Estimated
Sat 06:22:00 PM 27.0929 34.3630 140° Southeast  Level Estimated
Sat 06:23:00 PM 27.0145 34.4367 140° Southeast  Level Estimated
Sat 06:24:00 PM 26.9359 34.5102 140° Southeast  Level Estimated
Sat 06:25:00 PM 26.8574 34.5837 140° Southeast  Level Estimated
Sat 06:26:00 PM 26.7788 34.6570 140° Southeast  Level Estimated
Sat 06:27:00 PM 26.7001 34.7303 140° Southeast  Level Estimated
Sat 06:28:00 PM 26.6215 34.8034 140° Southeast  Level Estimated
Sat 06:29:00 PM 26.5428 34.8764 140° Southeast  Level Estimated
Sat 06:30:00 PM 26.4640 34.9494 140° Southeast  Level Estimated
Sat 06:31:00 PM 26.3852 35.0222 140° Southeast  Level Estimated
Sat 06:32:00 PM 26.3064 35.0950 140° Southeast  Level Estimated
Sat 06:33:00 PM 26.2276 35.1676 140° Southeast  Level Estimated
Sat 06:34:00 PM 26.1487 35.2401 140° Southeast  Level Estimated
Sat 06:35:00 PM 26.0697 35.3126 140° Southeast  Level Estimated
Sat 06:36:00 PM 25.9908 35.3849 141° Southeast  Level Estimated
Sat 06:37:00 PM 25.9118 35.4572 141° Southeast  Level Estimated
Sat 06:38:00 PM 25.8327 35.5293 141° Southeast  Level Estimated
Sat 06:39:00 PM 25.7537 35.6014 141° Southeast  Level Estimated
Sat 06:40:00 PM 25.6745 35.6734 141° Southeast  Level Estimated
Sat 06:41:00 PM 25.5954 35.7452 141° Southeast  Level Estimated
Sat 06:42:00 PM 25.5162 35.8170 141° Southeast  Level Estimated
Sat 06:43:00 PM 25.4370 35.8887 141° Southeast  Level Estimated
Sat 06:44:00 PM 25.3577 35.9603 141° Southeast  Level Estimated
Sat 06:45:00 PM 25.2785 36.0317 141° Southeast  Level Estimated
Sat 06:46:00 PM 25.1991 36.1031 141° Southeast  Level Estimated
Sat 06:47:00 PM 25.1198 36.1744 141° Southeast  Level Estimated
Sat 06:48:00 PM 25.0404 36.2457 141° Southeast  Level Estimated
Sat 06:49:00 PM 24.9610 36.3168 141° Southeast  Level Estimated
Sat 06:50:00 PM 24.8815 36.3878 141° Southeast  Level Estimated
Sat 06:51:00 PM 24.8020 36.4588 141° Southeast  Level Estimated
Sat 06:52:00 PM 24.7225 36.5296 141° Southeast  Level Estimated
Sat 06:53:00 PM 24.6430 36.6003 141° Southeast  Level Estimated
Sat 06:54:00 PM 24.5634 36.6710 141° Southeast  Level Estimated
Sat 06:55:00 PM 24.4837 36.7416 141° Southeast  Level Estimated
Sat 06:56:00 PM 24.4041 36.8121 141° Southeast  Level Estimated
Sat 06:57:00 PM 24.3244 36.8825 141° Southeast  Level Estimated
Sat 06:58:00 PM 24.2447 36.9528 141° Southeast  Level Estimated
Sat 06:59:00 PM 24.1649 37.0230 141° Southeast  Level Estimated
Sat 07:00:00 PM 24.0852 37.0931 141° Southeast  Level Estimated
Sat 07:01:00 PM 24.0053 37.1632 141° Southeast  Level Estimated
Sat 07:02:00 PM 23.9255 37.2331 141° Southeast  Level Estimated
Sat 07:03:00 PM 23.8456 37.3030 141° Southeast  Level Estimated
Sat 07:04:00 PM 23.7657 37.3728 141° Southeast  Level Estimated
Sat 07:05:00 PM 23.6858 37.4425 141° Southeast  Level Estimated
Sat 07:06:00 PM 23.6058 37.5121 141° Southeast  Level Estimated
Sat 07:07:00 PM 23.5258 37.5816 141° Southeast  Level Estimated
Sat 07:08:00 PM 23.4458 37.6511 141° Southeast  Level Estimated
Sat 07:09:00 PM 23.3657 37.7204 142° Southeast  Level Estimated
Sat 07:10:00 PM 23.2856 37.7897 142° Southeast  Level Estimated
Sat 07:11:00 PM 23.2055 37.8589 142° Southeast  Level Estimated
Sat 07:12:00 PM 23.1253 37.9280 142° Southeast  Level Estimated
Sat 07:13:00 PM 23.0451 37.9970 142° Southeast  Level Estimated
Sat 07:14:00 PM 22.9649 38.0660 142° Southeast  Level Estimated
Sat 07:15:00 PM 22.8846 38.1348 142° Southeast  Level Estimated
Sat 07:16:00 PM 22.8044 38.2036 142° Southeast  Level Estimated
Sat 07:17:00 PM 22.7241 38.2723 142° Southeast  Level Estimated
Sat 07:18:00 PM 22.6437 38.3409 142° Southeast  Level Estimated
Sat 07:19:00 PM 22.5634 38.4095 142° Southeast  Level Estimated
Sat 07:20:00 PM 22.4830 38.4779 142° Southeast  Level Estimated
Sat 07:20:07 PM 21.5620 39.1820 142° Southeast 176 203 2,200  Level FlightAware ADS-B
Sat 07:20:32 PM 21.5820 39.1750 342° North 178 205 1,900 -764 Descending FlightAware ADS-B
Sat 07:21:02 PM 21.6050 39.1660 340° North 161 185 1,500 -900 Descending FlightAware ADS-B
Sat 07:21:12 PM 21.6110 39.1630 335° Northwest 156 180 1,300 -462 Descending FlightAware ADS-B
Sat 07:22:07 PM 21.6460 39.1490 340° North 156 180 1,000 -424 Descending FlightAware ADS-B
Sat 07:22:37 PM 21.6630 39.1420 339° North 158 182 700 -600 Descending FlightAware ADS-B
Sat 07:25:00 PM 21.6796 39.1565 39° Northeast  Level Estimated
Sat 07:26:00 PM 21.6796 39.1565 317° Northwest  Level Estimated
Sat 07:27:00 PM 21.6796 39.1565 317° Northwest  Level Estimated
Sat 07:28:00 PM 21.6796 39.1565 317° Northwest  Level Estimated
Sat 07:29:00 PM 21.6796 39.1565 317° Northwest  Level Estimated
Sat 07:30:00 PM 21.6796 39.1565 317° Northwest  Level Estimated
Sat 07:31:00 PM 21.6796 39.1565 317° Northwest  Level Estimated
Sat 07:32:00 PM 21.6796 39.1565 317° Northwest  Level Estimated
Sat 07:33:00 PM 21.6796 39.1565 317° Northwest  Level Estimated
Sat 07:34:00 PM 21.6796 39.1565 317° Northwest  Level Estimated
Sat 07:35:00 PM 21.6796 39.1565 317° Northwest  Level Estimated
Sat 07:36:00 PM 21.6796 39.1565 317° Northwest  Level Estimated
Sat 07:37:00 PM 21.6796 39.1565 317° Northwest  Level Estimated
Sat 07:38:00 PM 21.6796 39.1565 317° Northwest  Level Estimated
Sat 07:39:00 PM 21.6796 39.1565 317° Northwest  Level Estimated
Sat 07:40:00 PM 21.6796 39.1565 317° Northwest  Level Estimated
Sat 07:41:00 PM 21.6796 39.1565 317° Northwest  Level Estimated
Sat 07:42:00 PM 21.6796 39.1565 317° Northwest  Level Estimated
Sat 07:43:00 PM 21.6796 39.1565 317° Northwest  Level Estimated
Sat 07:44:00 PM 21.6796 39.1565 317° Northwest  Level Estimated
Sat 07:45:00 PM 21.6796 39.1565 317° Northwest  Level Estimated
Sat 07:46:00 PM 21.6796 39.1565 317° Northwest  Level Estimated

Login

Don't have an account? Register now (free) for customized features, flight alerts, and more!